Time;durP1;ratioP1;P1;durP2;ratioP2;P2;SDS_P1;SDS_P2;PMS_P1;PMS_P2;Temp;Humidity;BMP_temperature;BMP_pressure;BME280_temperature;BME280_humidity;BME280_pressure;Samples;Min_cycle;Max_cycle;Signal;HPM_P1;HPM_P2
2022/01/22 00:01:47;;;;;;;72.97;10.60;;;;;;;;;;5092368;28;20239;-70
2022/01/22 00:04:15;;;;;;;73.57;10.82;;;;;;;;;;5092268;28;20218;-70
2022/01/22 00:06:42;;;;;;;72.22;9.52;;;;;;;;;;5091462;28;20207;-70
2022/01/22 00:09:11;;;;;;;70.18;10.38;;;;;;;;;;5092319;28;20223;-70
2022/01/22 00:11:41;;;;;;;73.65;10.73;;;;;;;;;;5092385;28;20232;-70
2022/01/22 00:14:26;;;;;;;69.53;10.65;;;;;;;;;;5092211;28;20260;-70
2022/01/22 00:16:55;;;;;;;71.57;9.80;;;;;;;;;;5091770;28;20291;-70
2022/01/22 00:19:23;;;;;;;67.25;9.27;;;;;;;;;;5091909;28;20291;-69
2022/01/22 00:21:50;;;;;;;69.65;10.02;;;;;;;;;;5091807;28;20755;-69
2022/01/22 00:24:17;;;;;;;72.93;10.55;;;;;;;;;;5092183;28;20741;-68
2022/01/22 00:26:46;;;;;;;69.88;10.15;;;;;;;;;;5091962;28;20711;-69
2022/01/22 00:29:13;;;;;;;68.25;10.25;;;;;;;;;;5091740;28;20209;-70
2022/01/22 00:31:41;;;;;;;72.25;10.88;;;;;;;;;;5090975;28;20613;-70
2022/01/22 00:34:08;;;;;;;74.18;11.02;;;;;;;;;;5091745;28;20230;-70
2022/01/22 00:36:37;;;;;;;70.80;11.40;;;;;;;;;;5091403;28;20283;-70
2022/01/22 00:39:05;;;;;;;72.13;10.43;;;;;;;;;;5091768;28;20209;-70
2022/01/22 00:41:32;;;;;;;73.05;11.60;;;;;;;;;;5092006;28;20291;-69
2022/01/22 00:43:59;;;;;;;69.75;10.65;;;;;;;;;;5091841;28;20211;-69
2022/01/22 00:46:26;;;;;;;70.70;11.38;;;;;;;;;;5091725;28;20300;-70
2022/01/22 00:48:53;;;;;;;69.95;9.23;;;;;;;;;;5091935;28;20300;-70
2022/01/22 00:51:21;;;;;;;70.10;10.43;;;;;;;;;;5091916;28;20227;-69
2022/01/22 00:53:49;;;;;;;69.78;11.30;;;;;;;;;;5091483;28;20318;-70
2022/01/22 00:56:16;;;;;;;71.97;11.25;;;;;;;;;;5091575;28;20288;-69
2022/01/22 00:58:43;;;;;;;70.35;10.98;;;;;;;;;;5091342;28;20239;-70
2022/01/22 01:01:10;;;;;;;76.68;11.52;;;;;;;;;;5091888;28;20244;-69
2022/01/22 01:03:38;;;;;;;69.15;10.05;;;;;;;;;;5100917;28;20231;-70
2022/01/22 01:06:06;;;;;;;65.95;9.75;;;;;;;;;;5112167;28;20204;-70
2022/01/22 01:08:34;;;;;;;70.65;9.32;;;;;;;;;;5111516;28;20294;-70
2022/01/22 01:11:05;;;;;;;67.90;9.57;;;;;;;;;;5111979;28;20618;-70
2022/01/22 01:13:38;;;;;;;81.28;10.48;;;;;;;;;;5111916;28;20232;-70
2022/01/22 01:16:16;;;;;;;66.63;9.05;;;;;;;;;;5111691;28;20219;-69
2022/01/22 01:32:53;;;;;;;65.55;8.10;;;;;;;;;;5052430;28;20222;-70
2022/01/22 01:35:20;;;;;;;67.15;9.35;;;;;;;;;;5050756;28;20222;-70
2022/01/22 01:37:48;;;;;;;71.18;10.13;;;;;;;;;;5083241;27;20237;-71
2022/01/22 01:40:19;;;;;;;72.55;9.13;;;;;;;;;;5115359;28;20680;-71
2022/01/22 01:42:52;;;;;;;66.97;8.80;;;;;;;;;;5115353;28;20277;-71
2022/01/22 01:45:19;;;;;;;67.47;8.90;;;;;;;;;;5115595;28;20200;-70
2022/01/22 01:47:49;;;;;;;67.95;10.10;;;;;;;;;;5115307;28;20311;-70
2022/01/22 01:50:17;;;;;;;70.28;9.40;;;;;;;;;;5115436;28;20295;-68
2022/01/22 01:52:48;;;;;;;74.50;12.00;;;;;;;;;;5114908;28;20263;-70
2022/01/22 01:55:19;;;;;;;69.22;9.07;;;;;;;;;;5115156;28;20219;-70
2022/01/22 01:57:46;;;;;;;74.20;9.98;;;;;;;;;;5114312;28;20209;-69
2022/01/22 02:00:18;;;;;;;69.07;10.48;;;;;;;;;;5115229;28;20205;-70
2022/01/22 02:02:47;;;;;;;69.80;10.48;;;;;;;;;;5114941;28;20217;-71
2022/01/22 02:05:14;;;;;;;70.15;11.07;;;;;;;;;;5115320;28;20200;-70
2022/01/22 02:07:43;;;;;;;72.38;11.43;;;;;;;;;;5113213;28;20589;-71
2022/01/22 02:10:14;;;;;;;69.28;10.65;;;;;;;;;;5114747;28;20257;-70
2022/01/22 02:23:50;;;;;;;70.97;11.57;;;;;;;;;;5114561;28;20353;-69
2022/01/22 02:26:18;;;;;;;82.72;13.40;;;;;;;;;;5115484;27;20199;-70
2022/01/22 02:28:48;;;;;;;69.32;10.23;;;;;;;;;;5114224;28;20235;-69
2022/01/22 02:31:21;;;;;;;71.90;11.70;;;;;;;;;;5113902;28;20200;-69
2022/01/22 02:33:54;;;;;;;72.63;11.90;;;;;;;;;;5114516;28;20228;-69
2022/01/22 02:36:27;;;;;;;72.53;10.75;;;;;;;;;;5114431;28;20228;-69
2022/01/22 02:39:00;;;;;;;70.78;12.13;;;;;;;;;;5114026;27;20618;-69
2022/01/22 02:41:27;;;;;;;70.85;10.95;;;;;;;;;;5094586;28;20205;-69
2022/01/22 02:43:55;;;;;;;70.85;10.95;;;;;;;;;;5094017;28;20239;-69
2022/01/22 02:46:24;;;;;;;72.15;10.88;;;;;;;;;;5093825;28;20668;-69
2022/01/22 02:48:51;;;;;;;69.10;11.10;;;;;;;;;;5105180;28;20556;-69
2022/01/22 02:51:18;;;;;;;70.80;11.18;;;;;;;;;;5114310;28;20295;-69
2022/01/22 02:53:49;;;;;;;71.22;11.73;;;;;;;;;;5113779;28;20224;-69
2022/01/22 02:56:16;;;;;;;76.53;11.38;;;;;;;;;;5114430;28;20220;-69
2022/01/22 02:58:44;;;;;;;71.18;10.55;;;;;;;;;;5113426;28;20250;-69
2022/01/22 03:01:15;;;;;;;69.78;11.82;;;;;;;;;;5113780;28;20255;-69
2022/01/22 03:03:42;;;;;;;70.30;10.98;;;;;;;;;;5113753;28;20581;-69
2022/01/22 03:06:09;;;;;;;74.82;11.13;;;;;;;;;;5113519;28;20222;-69
2022/01/22 03:08:39;;;;;;;69.10;10.50;;;;;;;;;;5113307;28;20217;-69
2022/01/22 03:11:17;;;;;;;69.80;11.32;;;;;;;;;;5113440;28;20214;-69
2022/01/22 03:16:45;;;;;;;69.57;11.60;;;;;;;;;;5113510;28;20699;-69
2022/01/22 03:19:27;;;;;;;73.13;11.27;;;;;;;;;;5113275;28;20277;-69
2022/01/22 03:22:00;;;;;;;74.53;11.77;;;;;;;;;;5113796;28;20312;-69
2022/01/22 03:27:22;;;;;;;70.20;10.80;;;;;;;;;;5113162;28;20204;-69
2022/01/22 03:29:50;;;;;;;70.45;12.15;;;;;;;;;;5113529;28;20204;-69
2022/01/22 03:32:18;;;;;;;74.22;11.82;;;;;;;;;;5113327;28;20600;-69
2022/01/22 03:34:55;;;;;;;69.00;10.77;;;;;;;;;;5113248;27;20736;-69
2022/01/22 03:37:22;;;;;;;73.72;12.02;;;;;;;;;;5112806;28;20672;-69
2022/01/22 03:39:50;;;;;;;70.32;11.45;;;;;;;;;;5113340;28;20303;-69
2022/01/22 03:42:18;;;;;;;76.57;11.15;;;;;;;;;;5112949;28;20228;-69
2022/01/22 03:44:45;;;;;;;73.40;12.07;;;;;;;;;;5106680;28;20669;-69
2022/01/22 03:47:12;;;;;;;74.13;11.43;;;;;;;;;;5092526;28;20212;-69
2022/01/22 03:49:40;;;;;;;74.32;12.00;;;;;;;;;;5093449;28;20299;-69
2022/01/22 03:52:07;;;;;;;73.40;12.10;;;;;;;;;;5092715;28;20231;-69
2022/01/22 03:54:35;;;;;;;69.30;11.20;;;;;;;;;;5092900;28;20213;-69
2022/01/22 03:57:02;;;;;;;70.35;12.02;;;;;;;;;;5092399;28;20230;-69
2022/01/22 03:59:31;;;;;;;72.63;11.73;;;;;;;;;;5092286;28;20233;-69
2022/01/22 04:04:45;;;;;;;68.80;10.43;;;;;;;;;;5092959;28;20663;-69
2022/01/22 04:10:04;;;;;;;71.05;11.00;;;;;;;;;;5093013;28;20200;-69
2022/01/22 04:12:40;;;;;;;71.68;11.82;;;;;;;;;;5092206;28;20229;-68
2022/01/22 04:15:10;;;;;;;69.57;10.77;;;;;;;;;;5091883;28;20224;-69
2022/01/22 04:24:49;;;;;;;78.28;12.93;;;;;;;;;;5101551;28;20294;-69
2022/01/22 04:26:05;;;;;;;73.88;11.57;;;;;;;;;;5112612;28;20293;-69
2022/01/22 04:28:33;;;;;;;73.25;11.90;;;;;;;;;;5112435;28;20212;-68
2022/01/22 04:31:01;;;;;;;76.00;11.82;;;;;;;;;;5112425;28;20212;-69
2022/01/22 04:33:28;;;;;;;73.18;12.40;;;;;;;;;;5112131;28;20731;-68
2022/01/22 04:35:55;;;;;;;73.40;11.20;;;;;;;;;;5112304;28;20237;-69
2022/01/22 04:38:22;;;;;;;75.43;12.32;;;;;;;;;;5112239;28;20210;-69
2022/01/22 04:40:50;;;;;;;74.20;12.65;;;;;;;;;;5112258;28;20215;-69
2022/01/22 04:43:17;;;;;;;73.07;12.00;;;;;;;;;;5112139;28;20782;-69
2022/01/22 04:45:55;;;;;;;73.18;11.43;;;;;;;;;;5112314;28;20201;-69
2022/01/22 04:48:41;;;;;;;70.78;11.18;;;;;;;;;;5111638;28;20592;-69
2022/01/22 04:56:38;;;;;;;74.55;12.70;;;;;;;;;;5116343;28;20231;-69
2022/01/22 04:59:05;;;;;;;71.03;10.50;;;;;;;;;;5115816;28;20287;-69
2022/01/22 05:01:32;;;;;;;71.13;11.23;;;;;;;;;;5116287;28;20208;-69
2022/01/22 05:04:01;;;;;;;71.35;12.23;;;;;;;;;;5116469;28;20204;-70
2022/01/22 05:06:29;;;;;;;70.57;10.73;;;;;;;;;;5116308;28;20291;-69
2022/01/22 05:08:57;;;;;;;70.88;11.70;;;;;;;;;;5115819;28;20212;-69
2022/01/22 05:11:25;;;;;;;73.03;12.40;;;;;;;;;;5116025;28;20204;-69
2022/01/22 05:13:52;;;;;;;72.80;12.18;;;;;;;;;;5116159;28;20223;-69
2022/01/22 05:16:19;;;;;;;74.57;11.93;;;;;;;;;;5116003;28;20314;-69
2022/01/22 05:18:52;;;;;;;68.28;10.85;;;;;;;;;;5115424;27;20631;-69
2022/01/22 05:21:22;;;;;;;72.20;11.18;;;;;;;;;;5113977;28;20209;-69
2022/01/22 05:23:51;;;;;;;68.82;10.57;;;;;;;;;;5115621;28;20281;-69
2022/01/22 05:29:21;;;;;;;68.38;10.95;;;;;;;;;;5097567;28;20196;-69
2022/01/22 05:32:17;;;;;;;72.22;11.30;;;;;;;;;;5115650;28;20204;-69
2022/01/22 05:37:28;;;;;;;88.00;13.02;;;;;;;;;;5115323;28;20223;-69
2022/01/22 05:39:55;;;;;;;72.68;12.15;;;;;;;;;;5115300;28;20487;-69
2022/01/22 05:42:23;;;;;;;71.95;12.85;;;;;;;;;;5115156;28;20712;-69
2022/01/22 05:44:50;;;;;;;73.57;11.30;;;;;;;;;;5115701;28;20634;-69
2022/01/22 05:47:24;;;;;;;72.45;12.48;;;;;;;;;;5115394;28;20309;-69
2022/01/22 05:49:52;;;;;;;80.13;13.07;;;;;;;;;;5115609;28;20578;-69
2022/01/22 05:52:27;;;;;;;71.07;11.88;;;;;;;;;;5113346;27;20230;-69
2022/01/22 05:55:13;;;;;;;76.18;11.85;;;;;;;;;;5115239;28;20574;-69
2022/01/22 06:00:24;;;;;;;77.53;12.85;;;;;;;;;;5115311;28;20195;-69
2022/01/22 06:02:52;;;;;;;73.82;11.30;;;;;;;;;;5115159;28;20233;-70
2022/01/22 06:05:19;;;;;;;81.72;13.05;;;;;;;;;;5114998;28;20296;-69
2022/01/22 06:07:46;;;;;;;72.55;12.50;;;;;;;;;;5114579;28;20220;-70
2022/01/22 06:10:18;;;;;;;76.85;13.23;;;;;;;;;;5115486;28;20295;-69
2022/01/22 06:12:58;;;;;;;72.95;13.15;;;;;;;;;;5114962;28;20603;-69
2022/01/22 06:15:26;;;;;;;75.00;12.73;;;;;;;;;;5114845;27;20204;-70
2022/01/22 06:17:53;;;;;;;75.82;12.93;;;;;;;;;;5114469;27;20207;-69
2022/01/22 06:20:20;;;;;;;76.78;11.68;;;;;;;;;;5114505;28;20294;-69
2022/01/22 06:22:47;;;;;;;75.35;13.43;;;;;;;;;;5114405;28;20665;-69
2022/01/22 06:25:16;;;;;;;72.03;10.93;;;;;;;;;;5112804;28;20204;-70
2022/01/22 06:27:43;;;;;;;83.93;12.05;;;;;;;;;;5114379;28;20204;-69
2022/01/22 06:30:11;;;;;;;71.45;12.45;;;;;;;;;;5114557;28;20204;-69
2022/01/22 06:32:38;;;;;;;77.80;12.77;;;;;;;;;;5114638;28;20224;-69
2022/01/22 06:35:06;;;;;;;77.00;12.70;;;;;;;;;;5115299;28;20295;-69
2022/01/22 06:37:33;;;;;;;73.28;10.95;;;;;;;;;;5123020;28;20262;-70
2022/01/22 06:42:46;;;;;;;74.07;11.73;;;;;;;;;;5126970;28;20226;-70
2022/01/22 06:45:13;;;;;;;73.28;11.50;;;;;;;;;;5126866;28;20215;-70
2022/01/22 06:47:41;;;;;;;72.22;11.27;;;;;;;;;;5126954;28;20287;-69
2022/01/22 06:50:08;;;;;;;71.30;10.57;;;;;;;;;;5128486;28;20232;-70
2022/01/22 06:52:37;;;;;;;74.18;11.30;;;;;;;;;;5126559;28;20266;-69
2022/01/22 06:55:05;;;;;;;72.43;11.68;;;;;;;;;;5114098;28;20208;-69
2022/01/22 06:57:32;;;;;;;71.65;11.32;;;;;;;;;;5112095;28;20720;-69
2022/01/22 07:00:00;;;;;;;70.68;11.32;;;;;;;;;;5114042;28;20237;-69
2022/01/22 07:02:28;;;;;;;71.00;11.73;;;;;;;;;;5113865;28;20311;-69
2022/01/22 07:04:55;;;;;;;74.25;12.40;;;;;;;;;;5114052;28;20212;-68
2022/01/22 07:07:22;;;;;;;71.50;12.25;;;;;;;;;;5113461;28;20214;-68
2022/01/22 07:09:49;;;;;;;73.72;12.80;;;;;;;;;;5114342;28;20295;-68
2022/01/22 07:12:16;;;;;;;69.13;11.10;;;;;;;;;;5113522;28;20310;-68
2022/01/22 07:14:45;;;;;;;71.20;12.30;;;;;;;;;;5113785;28;20218;-68
2022/01/22 07:17:14;;;;;;;83.47;11.70;;;;;;;;;;5112700;28;20224;-68
2022/01/22 07:19:42;;;;;;;73.28;11.15;;;;;;;;;;5113439;28;20208;-69
2022/01/22 07:22:30;;;;;;;71.78;11.77;;;;;;;;;;5113379;28;20224;-68
2022/01/22 07:24:57;;;;;;;75.05;12.77;;;;;;;;;;5113245;28;20213;-69
2022/01/22 07:27:24;;;;;;;77.00;11.73;;;;;;;;;;5112941;27;20208;-69
2022/01/22 07:29:51;;;;;;;72.55;10.73;;;;;;;;;;5111943;28;20207;-68
2022/01/22 07:32:28;;;;;;;71.10;11.30;;;;;;;;;;5113444;28;20335;-69
2022/01/22 07:34:56;;;;;;;71.97;11.30;;;;;;;;;;5113194;28;20242;-69
2022/01/22 07:37:23;;;;;;;76.25;11.40;;;;;;;;;;5113025;28;20240;-68
2022/01/22 07:39:50;;;;;;;74.85;10.43;;;;;;;;;;5113145;28;20210;-68
2022/01/22 07:42:17;;;;;;;70.68;11.40;;;;;;;;;;5113050;28;20231;-68
2022/01/22 07:44:44;;;;;;;69.82;10.43;;;;;;;;;;5112909;28;20202;-68
2022/01/22 07:47:12;;;;;;;70.88;10.07;;;;;;;;;;5112986;28;20327;-68
2022/01/22 07:49:40;;;;;;;70.70;10.77;;;;;;;;;;5112902;28;20200;-69
2022/01/22 07:52:08;;;;;;;74.35;11.60;;;;;;;;;;5113436;28;20659;-69
2022/01/22 07:54:35;;;;;;;70.82;10.45;;;;;;;;;;5113019;28;20291;-69
2022/01/22 07:57:02;;;;;;;75.10;11.55;;;;;;;;;;5113291;28;20711;-68
2022/01/22 07:59:30;;;;;;;71.30;10.35;;;;;;;;;;5113113;28;20211;-69
2022/01/22 08:01:58;;;;;;;72.68;10.55;;;;;;;;;;5110513;28;20708;-69
2022/01/22 08:04:25;;;;;;;70.07;11.30;;;;;;;;;;5112405;28;20207;-69
2022/01/22 08:06:54;;;;;;;71.85;11.85;;;;;;;;;;5112829;28;20204;-69
2022/01/22 08:09:21;;;;;;;68.68;10.88;;;;;;;;;;5112690;28;20204;-70
2022/01/22 08:11:48;;;;;;;68.50;9.90;;;;;;;;;;5112623;28;20208;-69
2022/01/22 08:14:16;;;;;;;71.18;12.10;;;;;;;;;;5112414;28;20299;-70
2022/01/22 08:16:44;;;;;;;69.88;11.40;;;;;;;;;;5112181;28;20230;-69
2022/01/22 08:19:11;;;;;;;70.72;10.70;;;;;;;;;;5112512;28;20595;-70
2022/01/22 08:21:38;;;;;;;70.85;10.80;;;;;;;;;;5112203;28;20243;-70
2022/01/22 08:24:07;;;;;;;69.30;10.45;;;;;;;;;;5112380;28;20206;-70
2022/01/22 08:26:39;;;;;;;71.75;10.73;;;;;;;;;;5112582;28;20265;-70
2022/01/22 08:29:06;;;;;;;69.93;10.98;;;;;;;;;;5111110;28;20204;-70
2022/01/22 08:31:51;;;;;;;69.30;10.60;;;;;;;;;;5111972;28;20204;-69
2022/01/22 08:37:03;;;;;;;68.53;11.05;;;;;;;;;;5091938;28;20227;-70
2022/01/22 08:39:32;;;;;;;68.53;10.27;;;;;;;;;;5092047;28;20288;-70
2022/01/22 08:41:59;;;;;;;72.80;10.73;;;;;;;;;;5091759;28;20307;-70
2022/01/22 08:44:26;;;;;;;71.10;11.63;;;;;;;;;;5091889;28;20227;-69
2022/01/22 08:46:53;;;;;;;71.10;11.32;;;;;;;;;;5091907;28;20583;-70
2022/01/22 08:49:20;;;;;;;69.97;9.50;;;;;;;;;;5107289;28;20228;-70
2022/01/22 08:51:47;;;;;;;77.68;10.63;;;;;;;;;;5114714;28;20232;-70
2022/01/22 08:54:14;;;;;;;74.43;10.93;;;;;;;;;;5115023;28;20201;-70
2022/01/22 08:56:43;;;;;;;68.93;10.88;;;;;;;;;;5112547;28;20232;-69
2022/01/22 08:59:12;;;;;;;71.38;10.63;;;;;;;;;;5112662;28;20253;-70
2022/01/22 09:01:40;;;;;;;70.20;10.85;;;;;;;;;;5113496;28;20205;-70
2022/01/22 09:04:07;;;;;;;72.90;11.38;;;;;;;;;;5105170;28;20209;-70
2022/01/22 09:06:35;;;;;;;72.15;10.93;;;;;;;;;;5101492;28;20215;-70
2022/01/22 09:09:09;;;;;;;70.63;11.98;;;;;;;;;;5100434;28;20307;-70
2022/01/22 09:11:36;;;;;;;74.93;10.90;;;;;;;;;;5101480;28;20205;-70
2022/01/22 09:14:05;;;;;;;69.22;10.20;;;;;;;;;;5101357;28;20439;-70
2022/01/22 09:16:33;;;;;;;75.10;10.80;;;;;;;;;;5101214;28;20781;-70
2022/01/22 09:19:06;;;;;;;74.35;9.80;;;;;;;;;;5093947;28;20641;-70
2022/01/22 09:21:33;;;;;;;70.93;11.00;;;;;;;;;;5098678;28;20211;-70
2022/01/22 09:24:00;;;;;;;70.85;10.35;;;;;;;;;;5102973;28;20240;-70
2022/01/22 09:26:28;;;;;;;73.38;10.25;;;;;;;;;;5103427;28;20570;-70
2022/01/22 09:28:56;;;;;;;71.25;9.85;;;;;;;;;;5103738;28;20244;-70
2022/01/22 09:31:24;;;;;;;70.53;9.55;;;;;;;;;;5098142;28;20657;-70
2022/01/22 09:33:51;;;;;;;68.55;9.85;;;;;;;;;;5091142;28;20231;-70
2022/01/22 09:36:19;;;;;;;73.22;10.25;;;;;;;;;;5094772;28;20645;-70
2022/01/22 09:38:46;;;;;;;72.20;10.30;;;;;;;;;;5112259;28;20291;-70
2022/01/22 09:41:15;;;;;;;72.72;10.40;;;;;;;;;;5115767;28;20206;-70
2022/01/22 09:43:42;;;;;;;69.28;10.77;;;;;;;;;;5115477;28;20763;-70
2022/01/22 09:46:10;;;;;;;72.35;10.50;;;;;;;;;;5115426;28;20231;-70
2022/01/22 09:48:42;;;;;;;68.78;9.40;;;;;;;;;;5115295;28;20196;-70
2022/01/22 09:51:09;;;;;;;68.72;9.52;;;;;;;;;;5115770;28;20291;-69
2022/01/22 09:53:36;;;;;;;70.57;9.45;;;;;;;;;;5115302;28;20781;-70
2022/01/22 09:56:04;;;;;;;70.20;9.68;;;;;;;;;;5115753;28;20295;-70
2022/01/22 09:58:31;;;;;;;72.55;9.68;;;;;;;;;;5116030;28;20246;-70
2022/01/22 10:01:13;;;;;;;71.25;10.05;;;;;;;;;;5115231;28;20317;-70
2022/01/22 10:03:42;;;;;;;68.57;9.15;;;;;;;;;;5114496;28;20259;-70
2022/01/22 10:06:14;;;;;;;72.72;10.23;;;;;;;;;;5115054;27;20223;-70
2022/01/22 10:08:41;;;;;;;71.95;10.05;;;;;;;;;;5099564;28;20645;-70
2022/01/22 10:11:16;;;;;;;69.43;9.80;;;;;;;;;;5094491;28;20205;-70
2022/01/22 10:13:44;;;;;;;72.60;9.98;;;;;;;;;;5094416;28;20323;-70
2022/01/22 10:16:13;;;;;;;70.10;9.52;;;;;;;;;;5094654;28;20205;-70
2022/01/22 10:18:41;;;;;;;68.50;8.10;;;;;;;;;;5094661;28;20221;-70
2022/01/22 10:21:10;;;;;;;71.45;9.30;;;;;;;;;;5095302;28;20205;-70
2022/01/22 10:23:39;;;;;;;67.65;8.90;;;;;;;;;;5094261;28;20316;-70
2022/01/22 10:26:09;;;;;;;67.03;9.10;;;;;;;;;;5094546;28;20201;-70
2022/01/22 10:28:47;;;;;;;68.25;9.65;;;;;;;;;;5094292;28;20253;-70
2022/01/22 10:31:22;;;;;;;69.28;9.70;;;;;;;;;;5094452;28;20215;-70
2022/01/22 10:34:06;;;;;;;67.20;9.10;;;;;;;;;;5093977;28;20255;-70
2022/01/22 10:36:33;;;;;;;65.50;8.45;;;;;;;;;;5094017;28;20681;-70
2022/01/22 10:39:00;;;;;;;70.68;9.60;;;;;;;;;;5094449;28;20267;-71
2022/01/22 10:41:35;;;;;;;72.20;10.77;;;;;;;;;;5114342;28;20747;-71
2022/01/22 10:44:02;;;;;;;67.85;8.88;;;;;;;;;;5113974;28;20212;-71
2022/01/22 10:46:41;;;;;;;69.30;9.60;;;;;;;;;;5113927;28;20208;-71
2022/01/22 10:49:11;;;;;;;73.35;10.02;;;;;;;;;;5114259;28;20211;-70
2022/01/22 10:51:45;;;;;;;69.93;8.65;;;;;;;;;;5113509;28;20202;-70
2022/01/22 10:54:13;;;;;;;67.78;9.63;;;;;;;;;;5114279;28;20208;-70
2022/01/22 10:56:41;;;;;;;69.20;9.10;;;;;;;;;;5113903;28;20620;-70
2022/01/22 10:59:09;;;;;;;68.57;9.52;;;;;;;;;;5114081;28;20224;-71
2022/01/22 11:01:46;;;;;;;69.93;8.60;;;;;;;;;;5114200;28;20286;-70
2022/01/22 11:04:16;;;;;;;70.47;11.75;;;;;;;;;;5113930;28;20242;-71
2022/01/22 11:06:47;;;;;;;64.20;8.35;;;;;;;;;;5113744;28;20731;-71
2022/01/22 11:09:15;;;;;;;71.28;10.30;;;;;;;;;;5113623;28;20299;-71
2022/01/22 11:11:43;;;;;;;73.20;10.57;;;;;;;;;;5100316;28;20209;-70
2022/01/22 11:14:11;;;;;;;70.05;9.43;;;;;;;;;;5093435;28;20201;-70
2022/01/22 11:16:39;;;;;;;69.20;10.32;;;;;;;;;;5093053;28;20620;-70
2022/01/22 11:19:07;;;;;;;66.97;9.05;;;;;;;;;;5093332;28;20588;-70
2022/01/22 11:21:40;;;;;;;68.93;9.23;;;;;;;;;;5093156;28;20236;-70
2022/01/22 11:24:08;;;;;;;67.28;9.45;;;;;;;;;;5092695;28;20236;-70
2022/01/22 11:26:36;;;;;;;71.75;9.50;;;;;;;;;;5092946;28;20293;-70
2022/01/22 11:29:03;;;;;;;67.53;8.60;;;;;;;;;;5093082;28;20626;-70
2022/01/22 11:31:31;;;;;;;69.82;7.75;;;;;;;;;;5092554;28;20577;-70
2022/01/22 11:34:01;;;;;;;65.88;9.23;;;;;;;;;;5092712;28;20205;-69
2022/01/22 11:36:31;;;;;;;65.68;9.18;;;;;;;;;;5093039;28;20211;-69
2022/01/22 11:39:01;;;;;;;65.18;8.40;;;;;;;;;;5092676;28;20270;-69
2022/01/22 11:41:29;;;;;;;71.53;9.63;;;;;;;;;;5093111;28;20205;-69
2022/01/22 11:44:04;;;;;;;65.85;7.63;;;;;;;;;;5092600;28;20228;-70
2022/01/22 11:46:34;;;;;;;73.30;9.32;;;;;;;;;;5092644;28;20359;-71
2022/01/22 11:49:26;;;;;;;70.00;10.00;;;;;;;;;;5092386;28;20201;-71
2022/01/22 11:51:54;;;;;;;70.07;9.55;;;;;;;;;;5092940;28;20762;-71
2022/01/22 11:54:24;;;;;;;69.43;9.07;;;;;;;;;;5092577;28;20205;-71
2022/01/22 11:56:53;;;;;;;67.25;9.05;;;;;;;;;;5094078;28;20205;-71
2022/01/22 11:59:24;;;;;;;65.60;9.48;;;;;;;;;;5092476;28;20736;-71
2022/01/22 12:02:02;;;;;;;65.47;8.90;;;;;;;;;;5092287;28;20300;-71
2022/01/22 12:04:30;;;;;;;69.15;8.95;;;;;;;;;;5092284;28;20212;-71
2022/01/22 12:07:13;;;;;;;69.90;9.48;;;;;;;;;;5092065;28;20288;-71
2022/01/22 12:09:51;;;;;;;68.00;8.45;;;;;;;;;;5092347;28;20204;-70
2022/01/22 12:15:10;;;;;;;69.30;8.30;;;;;;;;;;5092343;28;20673;-71
2022/01/22 12:17:59;;;;;;;68.00;10.20;;;;;;;;;;5091824;28;20217;-69
2022/01/22 12:23:52;;;;;;;66.97;9.18;;;;;;;;;;5070412;28;20323;-68
2022/01/22 12:26:34;;;;;;;64.35;7.82;;;;;;;;;;5091186;28;20640;-71
2022/01/22 12:29:22;;;;;;;67.75;9.50;;;;;;;;;;5091506;28;20728;-71
2022/01/22 12:32:04;;;;;;;66.22;8.00;;;;;;;;;;5091739;28;20200;-71
2022/01/22 12:34:46;;;;;;;68.38;9.75;;;;;;;;;;5091611;28;20247;-71
2022/01/22 12:37:20;;;;;;;68.40;10.23;;;;;;;;;;5091249;28;20218;-71
2022/01/22 12:39:50;;;;;;;68.15;10.07;;;;;;;;;;5091362;28;20250;-71
2022/01/22 12:42:25;;;;;;;65.38;8.60;;;;;;;;;;5091847;28;20311;-70
2022/01/22 12:44:59;;;;;;;77.70;11.20;;;;;;;;;;5090472;28;20431;-70
2022/01/22 12:47:27;;;;;;;70.15;8.57;;;;;;;;;;5091156;28;20451;-68
2022/01/22 12:49:59;;;;;;;72.30;9.38;;;;;;;;;;5095012;28;20210;-70
2022/01/22 12:52:27;;;;;;;66.45;9.88;;;;;;;;;;5112456;28;20228;-69
2022/01/22 12:54:58;;;;;;;67.82;10.38;;;;;;;;;;5112107;28;20295;-69
2022/01/22 12:57:27;;;;;;;69.30;10.13;;;;;;;;;;5112475;28;20249;-72
2022/01/22 13:00:01;;;;;;;71.97;9.88;;;;;;;;;;5111918;28;20257;-70
2022/01/22 13:02:38;;;;;;;67.85;9.98;;;;;;;;;;5111894;28;20227;-69
2022/01/22 13:05:05;;;;;;;69.53;9.93;;;;;;;;;;5111854;28;20208;-72
2022/01/22 13:07:38;;;;;;;70.18;10.63;;;;;;;;;;5111479;28;20215;-73
2022/01/22 13:10:07;;;;;;;68.82;9.38;;;;;;;;;;5112109;28;20214;-71
2022/01/22 13:12:36;;;;;;;68.50;8.82;;;;;;;;;;5111624;28;20232;-72
2022/01/22 13:15:03;;;;;;;66.30;8.73;;;;;;;;;;5114710;28;20203;-70
2022/01/22 13:17:31;;;;;;;66.60;9.70;;;;;;;;;;5115744;28;20691;-72
2022/01/22 13:20:00;;;;;;;67.20;9.43;;;;;;;;;;5115786;28;20200;-72
2022/01/22 13:22:31;;;;;;;69.80;9.93;;;;;;;;;;5115783;28;20226;-73
2022/01/22 13:25:04;;;;;;;69.75;10.02;;;;;;;;;;5115339;28;20747;-70
2022/01/22 13:27:32;;;;;;;67.72;9.40;;;;;;;;;;5115810;28;20298;-70
2022/01/22 13:29:59;;;;;;;76.25;10.07;;;;;;;;;;5116059;28;20680;-72
2022/01/22 13:32:41;;;;;;;69.78;9.80;;;;;;;;;;5115798;28;20224;-71
2022/01/22 13:35:21;;;;;;;68.43;10.07;;;;;;;;;;5115903;28;20204;-73
2022/01/22 13:45:02;;;;;;;70.00;9.70;;;;;;;;;;5095201;28;20665;-74
2022/01/22 13:49:26;;;;;;;69.95;9.73;;;;;;;;;;5095034;28;20236;-74
2022/01/22 13:51:55;;;;;;;69.53;10.82;;;;;;;;;;5094887;28;20274;-73
2022/01/22 13:54:28;;;;;;;70.95;10.38;;;;;;;;;;5095172;28;20209;-74
2022/01/22 13:56:58;;;;;;;69.72;9.98;;;;;;;;;;5096831;28;20604;-74
2022/01/22 13:59:26;;;;;;;68.65;10.30;;;;;;;;;;5094889;28;20289;-74
2022/01/22 14:02:09;;;;;;;73.22;10.32;;;;;;;;;;5094352;28;20317;-74
2022/01/22 14:04:41;;;;;;;72.55;11.13;;;;;;;;;;5094437;28;20240;-74
2022/01/22 14:07:16;;;;;;;68.43;10.13;;;;;;;;;;5094539;28;20212;-74
2022/01/22 14:09:51;;;;;;;69.53;10.80;;;;;;;;;;5095054;28;20288;-74
2022/01/22 14:12:19;;;;;;;68.22;9.90;;;;;;;;;;5094689;28;20315;-74
2022/01/22 14:15:11;;;;;;;68.30;9.43;;;;;;;;;;5094483;28;20237;-75
2022/01/22 14:17:53;;;;;;;75.40;11.27;;;;;;;;;;5084173;28;20209;-75
2022/01/22 14:20:24;;;;;;;73.03;10.90;;;;;;;;;;5094776;28;20750;-74
2022/01/22 14:22:57;;;;;;;73.15;10.75;;;;;;;;;;5094610;28;20229;-75
2022/01/22 14:25:25;;;;;;;69.40;10.15;;;;;;;;;;5093180;28;20297;-75
2022/01/22 14:27:56;;;;;;;70.15;11.02;;;;;;;;;;5094191;28;20295;-74
2022/01/22 14:30:30;;;;;;;75.13;11.88;;;;;;;;;;5094624;28;20291;-74
2022/01/22 14:32:57;;;;;;;72.85;11.30;;;;;;;;;;5094362;28;20663;-74
2022/01/22 14:35:25;;;;;;;71.65;10.82;;;;;;;;;;5094549;28;20208;-74
2022/01/22 14:37:56;;;;;;;77.32;12.00;;;;;;;;;;5093734;28;20212;-74
2022/01/22 14:45:58;;;;;;;78.05;11.82;;;;;;;;;;5094090;28;20242;-74
2022/01/22 14:48:26;;;;;;;74.35;11.50;;;;;;;;;;5101718;28;20204;-74
2022/01/22 14:50:53;;;;;;;69.18;10.40;;;;;;;;;;5114030;28;20295;-73
2022/01/22 14:53:20;;;;;;;71.35;13.07;;;;;;;;;;5114347;28;20224;-74
2022/01/22 14:55:53;;;;;;;77.40;11.40;;;;;;;;;;5114317;28;20209;-73
2022/01/22 14:58:21;;;;;;;70.00;10.57;;;;;;;;;;5113610;28;20226;-74
2022/01/22 15:00:48;;;;;;;72.15;11.98;;;;;;;;;;5113969;28;20214;-74
2022/01/22 15:03:15;;;;;;;72.30;10.88;;;;;;;;;;5113993;28;20320;-74
2022/01/22 15:05:43;;;;;;;72.60;10.73;;;;;;;;;;5113965;28;20627;-73
2022/01/22 15:08:10;;;;;;;73.05;11.45;;;;;;;;;;5113265;28;20212;-74
2022/01/22 15:10:37;;;;;;;70.85;10.75;;;;;;;;;;5113792;28;20204;-73
2022/01/22 15:13:06;;;;;;;72.30;11.60;;;;;;;;;;5113718;27;20224;-73
2022/01/22 15:15:35;;;;;;;75.03;12.02;;;;;;;;;;5113714;28;20300;-73
2022/01/22 15:18:15;;;;;;;70.95;11.55;;;;;;;;;;5113381;28;20251;-73
2022/01/22 15:20:42;;;;;;;72.40;12.13;;;;;;;;;;5112019;28;20653;-76
2022/01/22 15:23:09;;;;;;;73.43;12.65;;;;;;;;;;5113354;28;20696;-74
2022/01/22 15:25:36;;;;;;;73.70;11.80;;;;;;;;;;5113386;28;20300;-74
2022/01/22 15:28:04;;;;;;;74.88;12.23;;;;;;;;;;5113120;28;20833;-74
2022/01/22 15:30:35;;;;;;;80.32;13.40;;;;;;;;;;5113435;28;20247;-74
2022/01/22 15:33:14;;;;;;;75.75;13.00;;;;;;;;;;5113564;28;20225;-73
2022/01/22 15:35:42;;;;;;;81.32;13.60;;;;;;;;;;5113374;28;20676;-74
2022/01/22 15:38:09;;;;;;;72.07;11.45;;;;;;;;;;5112448;28;20295;-74
2022/01/22 15:40:36;;;;;;;76.63;12.77;;;;;;;;;;5113721;28;20299;-73
2022/01/22 15:43:04;;;;;;;79.78;12.48;;;;;;;;;;5112932;28;20256;-73
2022/01/22 15:45:35;;;;;;;72.80;12.80;;;;;;;;;;5112351;28;20208;-73
2022/01/22 15:48:03;;;;;;;75.28;12.48;;;;;;;;;;5112296;28;20200;-74
2022/01/22 15:50:30;;;;;;;72.93;13.30;;;;;;;;;;5113215;28;20196;-73
2022/01/22 15:52:57;;;;;;;76.00;14.05;;;;;;;;;;5102786;28;20682;-73
2022/01/22 15:55:25;;;;;;;74.43;12.00;;;;;;;;;;5093077;28;20239;-73
2022/01/22 15:57:52;;;;;;;75.72;12.55;;;;;;;;;;5094035;28;20258;-73
2022/01/22 16:00:19;;;;;;;76.82;12.48;;;;;;;;;;5093510;28;20224;-73